createdAt,value
2022-10-24T00:01:31.542Z,18.34
2022-10-24T00:03:59.411Z,18.31
2022-10-24T00:06:27.106Z,18.29
2022-10-24T00:08:54.978Z,18.26
2022-10-24T00:11:27.677Z,18.23
2022-10-24T00:13:57.669Z,18.18
2022-10-24T00:16:27.644Z,18.13
2022-10-24T00:18:55.467Z,18.11
2022-10-24T00:21:23.319Z,18.04
2022-10-24T00:23:51.202Z,18.00
2022-10-24T00:26:18.995Z,17.94
2022-10-24T00:28:46.837Z,17.89
2022-10-24T00:31:17.910Z,17.85
2022-10-24T00:33:46.158Z,17.81
2022-10-24T00:36:18.113Z,17.75
2022-10-24T00:38:46.178Z,17.66
2022-10-24T00:41:21.229Z,17.62
2022-10-24T00:43:49.440Z,17.58
2022-10-24T00:46:19.985Z,17.56
2022-10-24T00:48:52.208Z,17.54
2022-10-24T00:51:28.880Z,17.50
2022-10-24T00:54:15.933Z,17.49
2022-10-24T00:57:27.826Z,17.47
2022-10-24T01:00:02.025Z,17.40
2022-10-24T01:02:30.198Z,17.37
2022-10-24T01:04:58.068Z,17.31
2022-10-24T01:07:58.365Z,17.27
2022-10-24T01:10:57.158Z,17.25
2022-10-24T01:13:59.909Z,17.20
2022-10-24T01:17:09.699Z,17.17
2022-10-24T01:19:50.479Z,17.09
2022-10-24T01:22:22.599Z,17.05
2022-10-24T01:25:22.595Z,16.99
2022-10-24T01:28:15.508Z,16.95
2022-10-24T01:31:04.323Z,16.90
2022-10-24T01:33:49.433Z,16.86
2022-10-24T01:36:27.914Z,16.82
2022-10-24T01:39:02.540Z,16.78
2022-10-24T01:41:33.234Z,16.77
2022-10-24T01:44:18.827Z,16.75
2022-10-24T01:47:17.517Z,16.74
2022-10-24T01:50:11.794Z,16.70
2022-10-24T01:52:44.227Z,16.63
2022-10-24T01:55:13.157Z,16.62
2022-10-24T01:57:40.755Z,16.59
2022-10-24T02:00:15.564Z,16.59
2022-10-24T02:03:29.186Z,16.57
2022-10-24T02:06:08.270Z,16.56
2022-10-24T02:08:45.656Z,16.55
2022-10-24T02:11:13.940Z,16.55
2022-10-24T02:14:02.920Z,16.58
2022-10-24T02:16:30.835Z,16.60
2022-10-24T02:19:00.494Z,16.61
2022-10-24T02:21:43.949Z,16.66
2022-10-24T02:24:20.514Z,16.72
2022-10-24T02:27:08.226Z,16.75
2022-10-24T02:30:04.932Z,16.77
2022-10-24T02:32:40.044Z,16.79
2022-10-24T02:35:11.112Z,16.84
2022-10-24T02:37:49.200Z,16.90
2022-10-24T02:40:20.390Z,17.00
2022-10-24T02:42:52.790Z,17.07
2022-10-24T02:45:22.472Z,17.12
2022-10-24T02:47:58.428Z,17.14
2022-10-24T02:50:26.770Z,17.12
2022-10-24T02:52:54.537Z,17.11
2022-10-24T02:55:22.466Z,17.08
2022-10-24T02:57:50.248Z,17.06
2022-10-24T03:00:18.809Z,17.03
2022-10-24T03:02:47.082Z,17.01
2022-10-24T03:05:14.809Z,16.99
2022-10-24T03:07:42.630Z,16.97
2022-10-24T03:10:10.284Z,16.92
2022-10-24T03:12:38.071Z,16.91
2022-10-24T03:15:06.794Z,16.89
2022-10-24T03:17:34.590Z,16.89
2022-10-24T03:20:02.480Z,16.86
2022-10-24T03:22:30.673Z,16.82
2022-10-24T03:25:02.097Z,16.78
2022-10-24T03:27:30.785Z,16.77
2022-10-24T03:29:58.370Z,16.73
2022-10-24T03:34:59.299Z,16.68
2022-10-24T03:37:28.820Z,16.66
2022-10-24T03:39:56.823Z,16.62
2022-10-24T03:42:24.592Z,16.61
2022-10-24T03:44:52.150Z,16.57
2022-10-24T03:47:20.106Z,16.58
2022-10-24T03:49:47.634Z,16.55
2022-10-24T03:52:15.520Z,16.52
2022-10-24T03:54:43.305Z,16.52
2022-10-24T03:57:11.590Z,16.49
2022-10-24T03:59:39.193Z,16.47
2022-10-24T04:02:07.561Z,16.43
2022-10-24T04:04:35.328Z,16.41
2022-10-24T04:07:05.870Z,16.43
2022-10-24T04:09:33.527Z,16.42
2022-10-24T04:12:01.247Z,16.40
2022-10-24T04:14:28.761Z,16.40
2022-10-24T04:16:56.697Z,16.40
2022-10-24T04:19:24.276Z,16.40
2022-10-24T04:21:52.288Z,16.39
2022-10-24T04:24:19.873Z,16.38
2022-10-24T04:26:48.016Z,16.35
2022-10-24T04:29:15.563Z,16.33
2022-10-24T04:31:43.581Z,16.30
2022-10-24T04:34:11.163Z,16.30
2022-10-24T04:36:38.904Z,16.29
2022-10-24T04:39:08.974Z,16.31
2022-10-24T04:41:36.775Z,16.30
2022-10-24T04:44:04.411Z,16.29
2022-10-24T04:46:32.406Z,16.26
2022-10-24T04:48:59.960Z,16.25
2022-10-24T04:51:28.519Z,16.24
2022-10-24T04:53:56.436Z,16.23
2022-10-24T04:56:26.011Z,16.23
2022-10-24T04:58:53.686Z,16.19
2022-10-24T05:01:21.461Z,16.16
2022-10-24T05:03:49.162Z,16.14
2022-10-24T05:06:17.106Z,16.11
2022-10-24T05:08:44.817Z,16.07
2022-10-24T05:11:12.733Z,16.06
2022-10-24T05:13:41.296Z,16.05
2022-10-24T05:16:09.680Z,16.04
2022-10-24T05:18:38.418Z,16.03
2022-10-24T05:21:06.400Z,16.04
2022-10-24T05:23:33.943Z,16.03
2022-10-24T05:26:01.740Z,16.05
2022-10-24T05:28:29.888Z,16.05
2022-10-24T05:30:57.952Z,16.07
2022-10-24T05:33:25.653Z,16.08
2022-10-24T05:35:53.932Z,16.12
2022-10-24T05:38:22.835Z,16.15
2022-10-24T05:40:51.506Z,16.16
2022-10-24T05:43:19.596Z,16.17
2022-10-24T05:48:17.214Z,16.20
2022-10-24T05:50:45.618Z,16.24
2022-10-24T05:53:13.183Z,16.27
2022-10-24T05:55:40.937Z,16.25
2022-10-24T05:58:08.561Z,16.26
2022-10-24T06:00:36.367Z,16.25
2022-10-24T06:03:03.927Z,16.29
2022-10-24T06:05:31.751Z,16.32
2022-10-24T06:08:00.173Z,16.39
2022-10-24T06:10:28.050Z,16.43
2022-10-24T06:12:55.638Z,16.49
2022-10-24T06:15:23.597Z,16.52
2022-10-24T06:17:51.551Z,16.55
2022-10-24T06:20:19.625Z,16.58
2022-10-24T06:22:49.590Z,16.62
2022-10-24T06:25:17.625Z,16.65
2022-10-24T06:27:45.560Z,16.71
2022-10-24T06:30:13.344Z,16.76
2022-10-24T06:32:44.567Z,16.83
2022-10-24T06:35:15.961Z,16.91
2022-10-24T06:37:48.234Z,16.98
2022-10-24T06:40:18.676Z,17.05
2022-10-24T06:42:46.518Z,17.09
2022-10-24T06:45:14.371Z,17.14
2022-10-24T06:47:41.934Z,17.18
2022-10-24T06:50:10.158Z,17.23
2022-10-24T06:52:38.038Z,17.28
2022-10-24T06:55:24.777Z,17.32
2022-10-24T06:57:53.943Z,17.39
2022-10-24T07:00:21.995Z,17.42
2022-10-24T07:02:49.523Z,17.44
2022-10-24T07:05:17.545Z,17.48
2022-10-24T07:07:45.404Z,17.53
2022-10-24T07:10:15.207Z,17.57
2022-10-24T07:12:43.707Z,17.61
2022-10-24T07:15:12.598Z,17.61
2022-10-24T07:17:42.737Z,17.65
2022-10-24T07:20:12.765Z,17.67
2022-10-24T07:22:40.853Z,17.69
2022-10-24T07:25:09.387Z,17.73
2022-10-24T07:27:36.991Z,17.78
2022-10-24T07:30:07.211Z,17.85
2022-10-24T07:32:35.551Z,17.93
2022-10-24T07:35:03.609Z,18.02
2022-10-24T07:37:31.052Z,18.09
2022-10-24T07:39:58.721Z,18.17
2022-10-24T07:42:26.425Z,18.26
2022-10-24T07:44:54.178Z,18.34
2022-10-24T07:47:21.649Z,18.44
2022-10-24T07:49:49.472Z,18.52
2022-10-24T07:52:16.879Z,18.62
2022-10-24T07:54:44.768Z,18.72
2022-10-24T07:57:12.227Z,18.81
2022-10-24T07:59:42.543Z,18.91
2022-10-24T08:02:15.121Z,19.01
2022-10-24T08:04:43.267Z,19.11
2022-10-24T08:07:17.560Z,19.19
2022-10-24T08:09:48.275Z,19.29
2022-10-24T08:12:15.741Z,19.38
2022-10-24T08:14:43.859Z,19.47
2022-10-24T08:17:11.522Z,19.57
2022-10-24T08:19:43.828Z,19.66
2022-10-24T08:22:12.165Z,19.72
2022-10-24T08:24:39.953Z,19.79
2022-10-24T08:27:07.384Z,19.84
2022-10-24T08:29:36.348Z,19.90
2022-10-24T08:32:04.258Z,19.96
2022-10-24T08:34:31.957Z,20.02
2022-10-24T08:36:59.853Z,20.08
2022-10-24T08:39:27.571Z,20.13
2022-10-24T08:42:05.363Z,20.16
2022-10-24T08:44:47.259Z,20.18
2022-10-24T08:47:44.756Z,20.17
2022-10-24T08:50:33.645Z,20.14
2022-10-24T08:53:11.013Z,20.16
2022-10-24T08:55:50.810Z,20.23
2022-10-24T08:58:28.923Z,20.31
2022-10-24T09:01:01.656Z,20.41
2022-10-24T09:03:57.451Z,20.51
2022-10-24T09:06:32.397Z,20.62
2022-10-24T09:09:27.071Z,20.71
2022-10-24T09:12:13.546Z,20.84
2022-10-24T09:14:47.355Z,20.92
2022-10-24T09:17:45.262Z,21.03
2022-10-24T09:20:33.491Z,21.12
2022-10-24T09:23:05.071Z,21.19
2022-10-24T09:25:38.464Z,21.24
2022-10-24T09:28:06.686Z,21.28
2022-10-24T09:30:36.731Z,21.35
2022-10-24T09:33:34.464Z,21.41
2022-10-24T09:36:04.797Z,21.49
2022-10-24T09:38:39.417Z,21.59
2022-10-24T09:41:39.564Z,21.69
2022-10-24T09:44:39.369Z,21.78
2022-10-24T09:47:24.748Z,21.83
2022-10-24T09:49:53.640Z,21.93
2022-10-24T09:52:29.370Z,21.99
2022-10-24T09:55:22.456Z,22.02
2022-10-24T09:57:55.116Z,22.04
2022-10-24T10:00:36.362Z,22.07
2022-10-24T10:03:23.936Z,22.12
2022-10-24T10:05:59.368Z,22.18
2022-10-24T10:08:36.727Z,22.24
2022-10-24T10:11:13.092Z,22.30
2022-10-24T10:13:53.790Z,22.37
2022-10-24T10:16:33.944Z,22.44
2022-10-24T10:19:13.487Z,22.50
2022-10-24T10:22:06.623Z,22.56
2022-10-24T10:24:44.193Z,22.64
2022-10-24T10:27:51.171Z,22.72
2022-10-24T10:30:21.440Z,22.77
2022-10-24T10:33:22.201Z,22.85
2022-10-24T10:36:15.993Z,22.92
2022-10-24T10:39:13.515Z,23.00
2022-10-24T10:42:14.767Z,23.02
2022-10-24T10:45:19.321Z,23.04
2022-10-24T10:48:05.418Z,23.10
2022-10-24T10:50:53.180Z,23.18
2022-10-24T10:53:47.095Z,23.25
2022-10-24T10:56:45.668Z,23.35
2022-10-24T10:59:46.642Z,23.44
2022-10-24T11:02:58.638Z,23.55
2022-10-24T11:06:05.946Z,23.64
2022-10-24T11:09:07.565Z,23.76
2022-10-24T11:11:52.050Z,23.89
2022-10-24T11:14:48.479Z,24.06
2022-10-24T11:17:30.059Z,24.22
2022-10-24T11:20:19.820Z,24.34
2022-10-24T11:23:04.048Z,24.45
2022-10-24T11:25:40.019Z,24.61
2022-10-24T11:28:37.751Z,24.79
2022-10-24T11:31:15.513Z,24.97
2022-10-24T11:33:53.411Z,25.07
2022-10-24T11:36:40.067Z,25.14
2022-10-24T11:39:29.313Z,25.14
2022-10-24T11:42:15.243Z,25.10
2022-10-24T11:45:10.743Z,25.05
2022-10-24T11:47:46.523Z,24.98
2022-10-24T11:50:30.910Z,24.96
2022-10-24T11:53:31.269Z,24.91
2022-10-24T11:56:02.431Z,24.87
2022-10-24T11:58:33.545Z,24.81
2022-10-24T12:01:27.861Z,24.76
2022-10-24T12:04:21.258Z,24.77
2022-10-24T12:07:35.228Z,24.87
2022-10-24T12:10:43.496Z,24.99
2022-10-24T12:14:00.734Z,25.23
2022-10-24T12:16:57.309Z,25.47
2022-10-24T12:19:28.026Z,25.71
2022-10-24T12:22:01.605Z,25.92
2022-10-24T12:24:36.462Z,26.12
2022-10-24T12:27:25.758Z,26.30
2022-10-24T12:30:10.619Z,26.43
2022-10-24T12:32:52.441Z,26.51
2022-10-24T12:35:44.549Z,26.68
2022-10-24T12:38:27.620Z,26.92
2022-10-24T12:41:33.421Z,27.12
2022-10-24T12:44:34.853Z,27.42
2022-10-24T12:47:41.863Z,27.77
2022-10-24T12:50:21.704Z,27.98
2022-10-24T12:52:56.654Z,28.14
2022-10-24T12:55:39.128Z,28.28
2022-10-24T12:58:36.542Z,28.52
2022-10-24T13:01:11.159Z,28.71
2022-10-24T13:04:24.127Z,28.85
2022-10-24T13:07:31.587Z,28.96
2022-10-24T13:10:45.130Z,28.94
2022-10-24T13:13:39.167Z,28.76
2022-10-24T13:16:16.006Z,28.42
2022-10-24T13:19:06.581Z,28.22
2022-10-24T13:21:51.643Z,27.97
2022-10-24T13:24:22.554Z,27.78
2022-10-24T13:26:56.774Z,27.74
2022-10-24T13:29:24.469Z,27.77
2022-10-24T13:31:55.217Z,27.80
2022-10-24T13:34:47.927Z,27.76
2022-10-24T13:37:30.592Z,27.73
2022-10-24T13:40:19.231Z,27.63
2022-10-24T13:42:56.754Z,27.65
2022-10-24T13:45:49.727Z,27.67
2022-10-24T13:48:28.237Z,27.71
2022-10-24T13:51:24.510Z,27.76
2022-10-24T13:54:02.908Z,27.86
2022-10-24T13:56:35.488Z,27.95
2022-10-24T13:59:03.396Z,28.11
2022-10-24T14:01:31.642Z,28.28
2022-10-24T14:04:02.251Z,28.48
2022-10-24T14:06:33.507Z,28.68
2022-10-24T14:09:09.320Z,28.85
2022-10-24T14:11:46.959Z,28.96
2022-10-24T14:14:37.683Z,29.03
2022-10-24T14:17:36.049Z,29.04
2022-10-24T14:20:09.828Z,29.00
2022-10-24T14:22:40.754Z,28.99
2022-10-24T14:25:38.082Z,29.03
2022-10-24T14:28:20.364Z,29.07
2022-10-24T14:31:03.060Z,29.09
2022-10-24T14:33:48.171Z,29.03
2022-10-24T14:36:21.774Z,29.02
2022-10-24T14:38:57.572Z,28.95
2022-10-24T14:41:33.846Z,28.86
2022-10-24T14:44:02.408Z,28.72
2022-10-24T14:46:41.935Z,28.60
2022-10-24T14:49:38.204Z,28.45
2022-10-24T14:52:18.465Z,28.23
2022-10-24T14:55:03.249Z,27.93
2022-10-24T14:57:34.080Z,27.69
2022-10-24T15:00:09.027Z,27.36
2022-10-24T15:02:43.196Z,27.06
2022-10-24T15:05:20.445Z,26.70
2022-10-24T15:08:25.025Z,26.42
2022-10-24T15:10:48.725Z,26.11
2022-10-24T15:13:25.441Z,25.86
2022-10-24T15:15:59.778Z,25.61
2022-10-24T15:18:41.347Z,25.42
2022-10-24T15:21:20.244Z,25.13
2022-10-24T15:23:56.128Z,24.91
2022-10-24T15:26:36.331Z,24.71
2022-10-24T15:29:17.199Z,24.52
2022-10-24T15:31:48.644Z,24.31
2022-10-24T15:34:23.713Z,24.14
2022-10-24T15:36:53.317Z,23.99
2022-10-24T15:39:27.041Z,23.82
2022-10-24T15:41:55.346Z,23.69
2022-10-24T15:44:28.803Z,23.57
2022-10-24T15:46:56.851Z,23.44
2022-10-24T15:49:24.512Z,23.34
2022-10-24T15:51:52.584Z,23.26
2022-10-24T15:54:22.697Z,23.17
2022-10-24T15:56:52.215Z,23.08
2022-10-24T15:59:20.699Z,23.00
2022-10-24T16:01:52.688Z,22.92
2022-10-24T16:04:21.988Z,22.81
2022-10-24T16:06:51.295Z,22.78
2022-10-24T16:09:27.558Z,22.72
2022-10-24T16:11:55.858Z,22.64
2022-10-24T16:14:27.345Z,22.58
2022-10-24T16:16:55.485Z,22.53
2022-10-24T16:19:26.833Z,22.49
2022-10-24T16:21:59.643Z,22.46
2022-10-24T16:24:28.239Z,22.46
2022-10-24T16:26:56.886Z,22.44
2022-10-24T16:29:24.439Z,22.45
2022-10-24T16:31:52.261Z,22.45
2022-10-24T16:34:20.147Z,22.45
2022-10-24T16:36:48.074Z,22.43
2022-10-24T16:39:16.417Z,22.43
2022-10-24T16:41:46.410Z,22.44
2022-10-24T16:44:14.669Z,22.42
2022-10-24T16:46:42.537Z,22.42
2022-10-24T16:49:10.196Z,22.44
2022-10-24T16:51:41.825Z,22.43
2022-10-24T16:54:10.937Z,22.42
2022-10-24T16:56:38.829Z,22.42
2022-10-24T16:59:06.651Z,22.41
2022-10-24T17:01:35.795Z,22.41
2022-10-24T17:04:03.513Z,22.39
2022-10-24T17:06:31.301Z,22.39
2022-10-24T17:08:58.936Z,22.40
2022-10-24T17:11:44.328Z,22.39
2022-10-24T17:14:14.452Z,22.38
2022-10-24T17:16:44.025Z,22.37
2022-10-24T17:19:16.151Z,22.34
2022-10-24T17:21:51.242Z,22.35
2022-10-24T17:24:27.886Z,22.35
2022-10-24T17:26:56.676Z,22.34
2022-10-24T17:29:30.888Z,22.34
2022-10-24T17:31:59.890Z,22.34
2022-10-24T17:34:28.034Z,22.32
2022-10-24T17:37:52.476Z,22.33
2022-10-24T17:40:24.393Z,22.30
2022-10-24T17:42:52.614Z,22.28
2022-10-24T17:45:24.947Z,22.27
2022-10-24T17:47:52.851Z,22.26
2022-10-24T17:50:20.586Z,22.23
2022-10-24T17:52:51.321Z,22.20
2022-10-24T17:55:46.270Z,22.14
2022-10-24T17:58:15.457Z,22.12
2022-10-24T18:00:46.535Z,22.07
2022-10-24T18:03:15.675Z,21.99
2022-10-24T18:05:43.222Z,21.85
2022-10-24T18:08:13.742Z,21.72
2022-10-24T18:10:41.899Z,21.57
2022-10-24T18:13:10.621Z,21.45
2022-10-24T18:15:38.246Z,21.35
2022-10-24T18:18:06.615Z,21.27
2022-10-24T18:20:34.868Z,21.18
2022-10-24T18:23:03.207Z,21.05
2022-10-24T18:25:30.752Z,20.92
2022-10-24T18:27:58.558Z,20.81
2022-10-24T18:30:27.417Z,20.72
2022-10-24T18:32:55.249Z,20.65
2022-10-24T18:35:22.855Z,20.62
2022-10-24T18:40:24.081Z,20.53
2022-10-24T18:43:04.201Z,20.51
2022-10-24T18:45:32.779Z,20.49
2022-10-24T18:48:01.095Z,20.45
2022-10-24T18:50:29.411Z,20.38
2022-10-24T18:53:25.859Z,20.31
2022-10-24T18:55:53.748Z,20.24
2022-10-24T18:58:22.544Z,20.18
2022-10-24T19:00:56.750Z,20.14
2022-10-24T19:03:35.754Z,20.12
2022-10-24T19:06:25.830Z,20.10
2022-10-24T19:08:54.682Z,20.08
2022-10-24T19:11:24.695Z,20.07
2022-10-24T19:13:53.291Z,20.05
2022-10-24T19:16:27.505Z,20.02
2022-10-24T19:19:00.759Z,19.99
2022-10-24T19:21:28.889Z,19.96
2022-10-24T19:23:56.800Z,19.95
2022-10-24T19:26:24.734Z,19.93
2022-10-24T19:28:52.630Z,19.91
2022-10-24T19:31:20.248Z,19.87
2022-10-24T19:33:48.732Z,19.86
2022-10-24T19:36:19.040Z,19.84
2022-10-24T19:38:47.139Z,19.82
2022-10-24T19:41:15.039Z,19.79
2022-10-24T19:43:43.003Z,19.77
2022-10-24T19:46:25.983Z,19.76
2022-10-24T19:48:55.283Z,19.74
2022-10-24T19:51:24.120Z,19.72
2022-10-24T19:53:52.820Z,19.73
2022-10-24T19:56:26.862Z,19.72
2022-10-24T19:58:56.013Z,19.72
2022-10-24T20:01:27.304Z,19.69
2022-10-24T20:03:56.867Z,19.68
2022-10-24T20:06:27.545Z,19.66
2022-10-24T20:08:55.478Z,19.66
2022-10-24T20:11:23.881Z,19.65
2022-10-24T20:13:51.924Z,19.64
2022-10-24T20:16:20.055Z,19.61
2022-10-24T20:18:48.717Z,19.58
2022-10-24T20:21:18.942Z,19.55
2022-10-24T20:23:48.939Z,19.54
2022-10-24T20:26:24.857Z,19.55
2022-10-24T20:28:55.334Z,19.54
2022-10-24T20:31:30.205Z,19.52
2022-10-24T20:34:07.101Z,19.47
2022-10-24T20:36:42.909Z,19.42
2022-10-24T20:39:13.566Z,19.42
2022-10-24T20:41:42.255Z,19.41
2022-10-24T20:44:11.596Z,19.43
2022-10-24T20:46:40.670Z,19.41
2022-10-24T20:49:08.308Z,19.37
2022-10-24T20:51:40.826Z,19.31
2022-10-24T20:54:11.129Z,19.27
2022-10-24T20:56:42.244Z,19.25
2022-10-24T20:59:13.559Z,19.24
2022-10-24T21:01:41.356Z,19.24
2022-10-24T21:04:10.101Z,19.24
2022-10-24T21:06:37.849Z,19.24
2022-10-24T21:09:07.183Z,19.24
2022-10-24T21:11:35.686Z,19.21
2022-10-24T21:14:07.600Z,19.19
2022-10-24T21:16:35.443Z,19.17
2022-10-24T21:19:04.422Z,19.16
2022-10-24T21:21:32.168Z,19.14
2022-10-24T21:24:04.415Z,19.12
2022-10-24T21:26:38.582Z,19.10
2022-10-24T21:29:27.917Z,19.07
2022-10-24T21:31:55.784Z,19.06
2022-10-24T21:34:23.943Z,19.12
2022-10-24T21:36:51.510Z,19.13
2022-10-24T21:39:19.251Z,19.15
2022-10-24T21:41:46.804Z,19.17
2022-10-24T21:44:15.058Z,19.17
2022-10-24T21:46:42.893Z,19.15
2022-10-24T21:49:11.563Z,19.13
2022-10-24T21:51:41.355Z,19.11
2022-10-24T21:54:18.911Z,19.13
2022-10-24T21:56:47.037Z,19.17
2022-10-24T21:59:18.198Z,19.26
2022-10-24T22:01:47.715Z,19.36
2022-10-24T22:04:16.663Z,19.47
2022-10-24T22:06:46.312Z,19.60
2022-10-24T22:09:41.305Z,19.68
2022-10-24T22:12:16.208Z,19.73
2022-10-24T22:14:57.479Z,19.77
2022-10-24T22:17:40.176Z,19.75
2022-10-24T22:20:25.136Z,19.74
2022-10-24T22:23:07.506Z,19.75
2022-10-24T22:25:50.368Z,19.72
2022-10-24T22:28:28.492Z,19.69
2022-10-24T22:31:07.313Z,19.66
2022-10-24T22:33:48.709Z,19.59
2022-10-24T22:37:18.192Z,19.48
2022-10-24T22:39:55.802Z,19.40
2022-10-24T22:42:35.713Z,19.33
2022-10-24T22:45:16.183Z,19.28
2022-10-24T22:48:25.107Z,19.25
2022-10-24T22:51:32.726Z,19.18
2022-10-24T22:54:28.717Z,19.10
2022-10-24T22:57:00.980Z,19.01
2022-10-24T22:59:36.491Z,18.98
2022-10-24T23:06:22.244Z,18.85
2022-10-24T23:09:00.161Z,18.79
2022-10-24T23:12:17.908Z,18.72
2022-10-24T23:14:50.736Z,18.64
2022-10-24T23:17:24.446Z,18.57
2022-10-24T23:19:53.030Z,18.48
2022-10-24T23:22:29.466Z,18.45
2022-10-24T23:25:00.280Z,18.40
2022-10-24T23:27:39.557Z,18.32
2022-10-24T23:30:18.447Z,18.26
2022-10-24T23:32:48.335Z,18.22
2022-10-24T23:35:19.704Z,18.18
2022-10-24T23:37:51.272Z,18.13
2022-10-24T23:40:34.102Z,18.11
2022-10-24T23:43:06.719Z,18.08
2022-10-24T23:46:06.922Z,18.04
2022-10-24T23:49:39.157Z,17.98
2022-10-24T23:52:26.078Z,17.94
2022-10-24T23:54:54.283Z,17.87
2022-10-24T23:57:22.240Z,17.86
2022-10-24T23:59:49.979Z,17.82
